FAB018 SASA-SLVR
Flight info
| Callsign | FAB018 |
|---|---|
| Flight time | 1h 41m |
| Altitude | 25000 |
| Route | KIBOS DCT ESOKA UL322 VIR |
| Aircraft | B350/M-V/N |
Departure
| Time | 2026-05-08 01:28 |
|---|---|
| Airport | Martín Miguel de Güemes International Airport (SASA) |
Arrival
| Time | 2026-05-08 03:09 |
|---|---|
| Airport | Viru Viru International Airport (SLVR) |
| Time | Latitude | Longitude | Altitude | Speed | Heading |
|---|---|---|---|---|---|
| 2026-05-08 01:13 | -24.84536 | -65.47962 | 4081 ft | 0 kts | 200° |
| 2026-05-08 01:14 | -24.84510 | -65.48008 | 4081 ft | 0 kts | 200° |
| 2026-05-08 01:14 | -24.84918 | -65.48170 | 4111 ft | 235 kts | 200° |
| 2026-05-08 01:14 | -24.86085 | -65.48632 | 4081 ft | 216 kts | 200° |
| 2026-05-08 01:15 | -24.84536 | -65.47962 | 4081 ft | 0 kts | 200° |
| 2026-05-08 01:23 | -24.84537 | -65.47938 | 4082 ft | 3 kts | 25° |
| 2026-05-08 01:23 | -24.84504 | -65.47947 | 4082 ft | 3 kts | 286° |
| 2026-05-08 01:23 | -24.84499 | -65.47981 | 4082 ft | 14 kts | 274° |
| 2026-05-08 01:24 | -24.84526 | -65.48079 | 4082 ft | 11 kts | 250° |
| 2026-05-08 01:24 | -24.84543 | -65.48130 | 4082 ft | 4 kts | 249° |
| 2026-05-08 01:24 | -24.84562 | -65.48183 | 4082 ft | 17 kts | 249° |
| 2026-05-08 01:24 | -24.84585 | -65.48248 | 4082 ft | 13 kts | 248° |
| 2026-05-08 01:25 | -24.84598 | -65.48285 | 4081 ft | 0 kts | 248° |
| 2026-05-08 01:25 | -24.84600 | -65.48290 | 4082 ft | 6 kts | 248° |
| 2026-05-08 01:25 | -24.84676 | -65.48391 | 4082 ft | 25 kts | 222° |
| 2026-05-08 01:25 | -24.84759 | -65.48433 | 4081 ft | 0 kts | 193° |
| 2026-05-08 01:26 | -24.84759 | -65.48434 | 4081 ft | 0 kts | 193° |
| 2026-05-08 01:27 | -24.85086 | -65.48504 | 4082 ft | 110 kts | 191° |
| 2026-05-08 01:27 | -24.86106 | -65.48721 | 4128 ft | 172 kts | 191° |
| 2026-05-08 01:28 | -24.87356 | -65.48972 | 4283 ft | 194 kts | 189° |
| 2026-05-08 01:28 | -24.88683 | -65.49184 | 4846 ft | 185 kts | 185° |
| 2026-05-08 01:28 | -24.89752 | -65.48517 | 5112 ft | 197 kts | 109° |
| 2026-05-08 01:28 | -24.89227 | -65.47302 | 5551 ft | 188 kts | 32° |
| 2026-05-08 01:29 | -24.88080 | -65.46605 | 5848 ft | 184 kts | 27° |
| 2026-05-08 01:29 | -24.86935 | -65.45996 | 5890 ft | 181 kts | 26° |
| 2026-05-08 01:29 | -24.85826 | -65.45405 | 6004 ft | 167 kts | 26° |
| 2026-05-08 01:29 | -24.84826 | -65.44871 | 6253 ft | 156 kts | 26° |
| 2026-05-08 01:30 | -24.83865 | -65.44359 | 6515 ft | 152 kts | 26° |
| 2026-05-08 01:30 | -24.82913 | -65.43851 | 6787 ft | 150 kts | 26° |
| 2026-05-08 01:30 | -24.81979 | -65.43354 | 7059 ft | 149 kts | 26° |
| 2026-05-08 01:30 | -24.81011 | -65.42840 | 7357 ft | 169 kts | 22° |
| 2026-05-08 01:31 | -24.79835 | -65.42329 | 7670 ft | 192 kts | 13° |
| 2026-05-08 01:31 | -24.78528 | -65.41772 | 7964 ft | 205 kts | 18° |
| 2026-05-08 01:31 | -24.77236 | -65.41045 | 8245 ft | 212 kts | 24° |
| 2026-05-08 01:31 | -24.75978 | -65.40181 | 8522 ft | 216 kts | 29° |
| 2026-05-08 01:32 | -24.74741 | -65.39225 | 8787 ft | 222 kts | 31° |
| 2026-05-08 01:32 | -24.73449 | -65.38163 | 9046 ft | 239 kts | 33° |
| 2026-05-08 01:32 | -24.72121 | -65.37029 | 9325 ft | 246 kts | 34° |
| 2026-05-08 01:32 | -24.70781 | -65.35854 | 9600 ft | 243 kts | 34° |
| 2026-05-08 01:33 | -24.69490 | -65.34708 | 9869 ft | 237 kts | 34° |
| 2026-05-08 01:33 | -24.68218 | -65.33578 | 10140 ft | 234 kts | 34° |
| 2026-05-08 01:33 | -24.66843 | -65.32646 | 10415 ft | 229 kts | 21° |
| 2026-05-08 01:33 | -24.65395 | -65.31977 | 10690 ft | 225 kts | 15° |
| 2026-05-08 01:34 | -24.63923 | -65.31427 | 10964 ft | 220 kts | 12° |
| 2026-05-08 01:34 | -24.62467 | -65.30942 | 11236 ft | 217 kts | 11° |
| 2026-05-08 01:34 | -24.61006 | -65.30487 | 11511 ft | 214 kts | 9° |
| 2026-05-08 01:34 | -24.59596 | -65.30064 | 11778 ft | 207 kts | 9° |
| 2026-05-08 01:35 | -24.58233 | -65.29664 | 12044 ft | 201 kts | 8° |
| 2026-05-08 01:35 | -24.56910 | -65.29281 | 12304 ft | 187 kts | 8° |
| 2026-05-08 01:35 | -24.55706 | -65.28932 | 12553 ft | 172 kts | 7° |
| 2026-05-08 01:35 | -24.54591 | -65.28614 | 12803 ft | 161 kts | 6° |
| 2026-05-08 01:36 | -24.53533 | -65.28317 | 13058 ft | 154 kts | 6° |
| 2026-05-08 01:36 | -24.52509 | -65.28034 | 13318 ft | 148 kts | 5° |
| 2026-05-08 01:36 | -24.51519 | -65.27761 | 13579 ft | 143 kts | 5° |
| 2026-05-08 01:36 | -24.50579 | -65.27502 | 13825 ft | 139 kts | 5° |
| 2026-05-08 01:37 | -24.49615 | -65.27241 | 13996 ft | 147 kts | 5° |
| 2026-05-08 01:37 | -24.48573 | -65.26962 | 14208 ft | 157 kts | 5° |
| 2026-05-08 01:37 | -24.47499 | -65.26669 | 14358 ft | 163 kts | 6° |
| 2026-05-08 01:37 | -24.46373 | -65.26358 | 14495 ft | 167 kts | 6° |
| 2026-05-08 01:38 | -24.45244 | -65.26045 | 14624 ft | 170 kts | 6° |
| 2026-05-08 01:38 | -24.44090 | -65.25724 | 14753 ft | 171 kts | 6° |
| 2026-05-08 01:38 | -24.42938 | -65.25404 | 14879 ft | 172 kts | 6° |
| 2026-05-08 01:38 | -24.41767 | -65.25079 | 15006 ft | 173 kts | 6° |
| 2026-05-08 01:39 | -24.40602 | -65.24756 | 15131 ft | 174 kts | 6° |
| 2026-05-08 01:39 | -24.39423 | -65.24429 | 15258 ft | 174 kts | 6° |
| 2026-05-08 01:39 | -24.38252 | -65.24105 | 15382 ft | 174 kts | 6° |
| 2026-05-08 01:39 | -24.37061 | -65.23776 | 15509 ft | 175 kts | 6° |
| 2026-05-08 01:40 | -24.35895 | -65.23453 | 15633 ft | 175 kts | 6° |
| 2026-05-08 01:40 | -24.34712 | -65.23126 | 15759 ft | 175 kts | 6° |
| 2026-05-08 01:40 | -24.33532 | -65.22801 | 15883 ft | 175 kts | 6° |
| 2026-05-08 01:40 | -24.32348 | -65.22474 | 16009 ft | 176 kts | 6° |
| 2026-05-08 01:41 | -24.31150 | -65.22143 | 16135 ft | 176 kts | 6° |
| 2026-05-08 01:41 | -24.29955 | -65.21814 | 16298 ft | 180 kts | 6° |
| 2026-05-08 01:41 | -24.28699 | -65.21475 | 16556 ft | 195 kts | 7° |
| 2026-05-08 01:41 | -24.27334 | -65.21106 | 16825 ft | 205 kts | 7° |
| 2026-05-08 01:42 | -24.25929 | -65.20720 | 17085 ft | 210 kts | 7° |
| 2026-05-08 01:42 | -24.24496 | -65.20324 | 17340 ft | 213 kts | 8° |
| 2026-05-08 01:42 | -24.23068 | -65.19928 | 17590 ft | 214 kts | 8° |
| 2026-05-08 01:42 | -24.21625 | -65.19527 | 17840 ft | 215 kts | 8° |
| 2026-05-08 01:43 | -24.20155 | -65.19120 | 18094 ft | 216 kts | 8° |
| 2026-05-08 01:43 | -24.18708 | -65.18720 | 18342 ft | 217 kts | 8° |
| 2026-05-08 01:43 | -24.17235 | -65.18313 | 18594 ft | 217 kts | 8° |
| 2026-05-08 01:43 | -24.15776 | -65.17910 | 18843 ft | 218 kts | 7° |
| 2026-05-08 01:44 | -24.14306 | -65.17505 | 19093 ft | 218 kts | 7° |
| 2026-05-08 01:44 | -24.12838 | -65.17100 | 19343 ft | 219 kts | 7° |
| 2026-05-08 01:44 | -24.11340 | -65.16688 | 19597 ft | 219 kts | 7° |
| 2026-05-08 01:44 | -24.09870 | -65.16283 | 19845 ft | 220 kts | 7° |
| 2026-05-08 01:45 | -24.08392 | -65.15877 | 20095 ft | 220 kts | 7° |
| 2026-05-08 01:45 | -24.06899 | -65.15466 | 20346 ft | 220 kts | 7° |
| 2026-05-08 01:45 | -24.05395 | -65.15053 | 20599 ft | 221 kts | 7° |
| 2026-05-08 01:45 | -24.03907 | -65.14644 | 20848 ft | 221 kts | 7° |
| 2026-05-08 01:46 | -24.02409 | -65.14232 | 21099 ft | 221 kts | 7° |
| 2026-05-08 01:46 | -24.00934 | -65.13827 | 21346 ft | 221 kts | 7° |
| 2026-05-08 01:46 | -23.99438 | -65.13416 | 21597 ft | 221 kts | 7° |
| 2026-05-08 01:46 | -23.97948 | -65.13007 | 21846 ft | 221 kts | 7° |
| 2026-05-08 01:47 | -23.96451 | -65.12597 | 22096 ft | 222 kts | 7° |
| 2026-05-08 01:47 | -23.94935 | -65.12181 | 22349 ft | 223 kts | 7° |
| 2026-05-08 01:47 | -23.93426 | -65.11768 | 22600 ft | 225 kts | 8° |
| 2026-05-08 01:48 | -23.90372 | -65.10932 | 23102 ft | 229 kts | 8° |
| 2026-05-08 01:48 | -23.88812 | -65.10505 | 23356 ft | 231 kts | 8° |
| 2026-05-08 01:48 | -23.87256 | -65.10079 | 23606 ft | 233 kts | 8° |
| 2026-05-08 01:48 | -23.85660 | -65.09642 | 23842 ft | 236 kts | 8° |
| 2026-05-08 01:49 | -23.84068 | -65.09208 | 23997 ft | 238 kts | 8° |
| 2026-05-08 01:49 | -23.82462 | -65.08768 | 24128 ft | 240 kts | 8° |
| 2026-05-08 01:49 | -23.80816 | -65.08318 | 24258 ft | 243 kts | 8° |
| 2026-05-08 01:49 | -23.79172 | -65.07868 | 24384 ft | 245 kts | 8° |
| 2026-05-08 01:50 | -23.77525 | -65.07417 | 24510 ft | 246 kts | 8° |
| 2026-05-08 01:50 | -23.75853 | -65.06958 | 24636 ft | 246 kts | 8° |
| 2026-05-08 01:50 | -23.74188 | -65.06502 | 24762 ft | 246 kts | 8° |
| 2026-05-08 01:50 | -23.72537 | -65.06049 | 24885 ft | 245 kts | 8° |
| 2026-05-08 01:51 | -23.70885 | -65.05597 | 24971 ft | 247 kts | 8° |
| 2026-05-08 01:51 | -23.69197 | -65.05137 | 24999 ft | 250 kts | 8° |
| 2026-05-08 01:51 | -23.67505 | -65.04676 | 25002 ft | 252 kts | 8° |
| 2026-05-08 01:51 | -23.65797 | -65.04209 | 25002 ft | 252 kts | 8° |
| 2026-05-08 01:52 | -23.64080 | -65.03740 | 25001 ft | 253 kts | 8° |
| 2026-05-08 01:52 | -23.62393 | -65.03278 | 25000 ft | 251 kts | 8° |
| 2026-05-08 01:52 | -23.61256 | -65.02967 | 24999 ft | 250 kts | 8° |
| 2026-05-08 01:52 | -23.59563 | -65.02504 | 24999 ft | 250 kts | 8° |
| 2026-05-08 01:53 | -23.57887 | -65.02046 | 25000 ft | 250 kts | 8° |
| 2026-05-08 01:53 | -23.56203 | -65.01587 | 25000 ft | 250 kts | 8° |
| 2026-05-08 01:53 | -23.54512 | -65.01125 | 25000 ft | 249 kts | 8° |
| 2026-05-08 01:53 | -23.52816 | -65.00664 | 25000 ft | 251 kts | 8° |
| 2026-05-08 01:54 | -23.51111 | -65.00200 | 25001 ft | 252 kts | 8° |
| 2026-05-08 01:54 | -23.49406 | -64.99737 | 25000 ft | 253 kts | 8° |
| 2026-05-08 01:54 | -23.47696 | -64.99271 | 25000 ft | 253 kts | 8° |
| 2026-05-08 01:54 | -23.46010 | -64.98812 | 25000 ft | 253 kts | 8° |
| 2026-05-08 01:55 | -23.44302 | -64.98346 | 25000 ft | 253 kts | 8° |
| 2026-05-08 01:55 | -23.42593 | -64.97881 | 25000 ft | 253 kts | 8° |
| 2026-05-08 01:55 | -23.40870 | -64.97412 | 25000 ft | 253 kts | 8° |
| 2026-05-08 01:55 | -23.39165 | -64.96948 | 25000 ft | 253 kts | 8° |
| 2026-05-08 01:56 | -23.37458 | -64.96484 | 25000 ft | 253 kts | 8° |
| 2026-05-08 01:56 | -23.35756 | -64.96021 | 25000 ft | 253 kts | 8° |
| 2026-05-08 01:56 | -23.34059 | -64.95560 | 25000 ft | 253 kts | 8° |
| 2026-05-08 01:56 | -23.32329 | -64.95090 | 25000 ft | 253 kts | 8° |
| 2026-05-08 01:57 | -23.30632 | -64.94629 | 25000 ft | 253 kts | 8° |
| 2026-05-08 01:57 | -23.29004 | -64.94187 | 25000 ft | 253 kts | 8° |
| 2026-05-08 01:57 | -23.28517 | -64.94055 | 25000 ft | 253 kts | 8° |
| 2026-05-08 01:57 | -23.26900 | -64.93616 | 25000 ft | 253 kts | 8° |
| 2026-05-08 01:58 | -23.26467 | -64.93498 | 25000 ft | 253 kts | 8° |
| 2026-05-08 01:58 | -23.24862 | -64.93070 | 25076 ft | 232 kts | 12° |
| 2026-05-08 01:59 | -23.23330 | -64.92654 | 25038 ft | 223 kts | 12° |
| 2026-05-08 01:59 | -23.21844 | -64.92248 | 25012 ft | 219 kts | 12° |
| 2026-05-08 01:59 | -23.20357 | -64.91843 | 25004 ft | 217 kts | 12° |
| 2026-05-08 01:59 | -23.18904 | -64.91447 | 25002 ft | 217 kts | 12° |
| 2026-05-08 02:00 | -23.17440 | -64.91050 | 25002 ft | 216 kts | 12° |
| 2026-05-08 02:00 | -23.14640 | -64.90291 | 25003 ft | 216 kts | 12° |
| 2026-05-08 02:00 | -23.11734 | -64.89504 | 25003 ft | 216 kts | 12° |
| 2026-05-08 02:00 | -23.08810 | -64.88712 | 25003 ft | 216 kts | 12° |
| 2026-05-08 02:01 | -23.04330 | -64.87500 | 25003 ft | 216 kts | 12° |
| 2026-05-08 02:01 | -22.98466 | -64.85910 | 25003 ft | 216 kts | 13° |
| 2026-05-08 02:01 | -22.92724 | -64.84110 | 25003 ft | 216 kts | 14° |
| 2026-05-08 02:01 | -22.86915 | -64.82213 | 25003 ft | 216 kts | 14° |
| 2026-05-08 02:02 | -22.81154 | -64.80324 | 25003 ft | 216 kts | 14° |
| 2026-05-08 02:02 | -22.78424 | -64.79429 | 25003 ft | 216 kts | 14° |
| 2026-05-08 02:02 | -22.76978 | -64.78954 | 25003 ft | 216 kts | 14° |
| 2026-05-08 02:02 | -22.75544 | -64.78484 | 25003 ft | 216 kts | 14° |
| 2026-05-08 02:03 | -22.74096 | -64.78010 | 25003 ft | 216 kts | 14° |
| 2026-05-08 02:03 | -22.72666 | -64.77541 | 25003 ft | 216 kts | 14° |
| 2026-05-08 02:03 | -22.71205 | -64.77062 | 25003 ft | 216 kts | 14° |
| 2026-05-08 02:03 | -22.69780 | -64.76596 | 25003 ft | 216 kts | 14° |
| 2026-05-08 02:04 | -22.68326 | -64.76119 | 25003 ft | 216 kts | 14° |
| 2026-05-08 02:04 | -22.66882 | -64.75646 | 25003 ft | 216 kts | 14° |
| 2026-05-08 02:04 | -22.65435 | -64.75173 | 25003 ft | 216 kts | 14° |
| 2026-05-08 02:04 | -22.64006 | -64.74705 | 25003 ft | 216 kts | 14° |
| 2026-05-08 02:05 | -22.62560 | -64.74232 | 25003 ft | 216 kts | 14° |
| 2026-05-08 02:05 | -22.61124 | -64.73762 | 25003 ft | 216 kts | 14° |
| 2026-05-08 02:05 | -22.59678 | -64.73289 | 25003 ft | 216 kts | 14° |
| 2026-05-08 02:05 | -22.57492 | -64.72574 | 25003 ft | 216 kts | 14° |
| 2026-05-08 02:06 | -22.54589 | -64.71625 | 25003 ft | 216 kts | 14° |
| 2026-05-08 02:06 | -22.51709 | -64.70685 | 25003 ft | 216 kts | 14° |
| 2026-05-08 02:06 | -22.48838 | -64.69747 | 25003 ft | 216 kts | 14° |
| 2026-05-08 02:06 | -22.45947 | -64.68803 | 25003 ft | 216 kts | 14° |
| 2026-05-08 02:07 | -22.43066 | -64.67863 | 25003 ft | 216 kts | 14° |
| 2026-05-08 02:07 | -22.40172 | -64.66919 | 25003 ft | 216 kts | 14° |
| 2026-05-08 02:07 | -22.37265 | -64.65972 | 25003 ft | 216 kts | 14° |
| 2026-05-08 02:07 | -22.34400 | -64.65038 | 25003 ft | 217 kts | 14° |
| 2026-05-08 02:08 | -22.31494 | -64.64091 | 25003 ft | 217 kts | 14° |
| 2026-05-08 02:08 | -22.28628 | -64.63158 | 25003 ft | 217 kts | 14° |
| 2026-05-08 02:08 | -22.25737 | -64.62217 | 25003 ft | 217 kts | 14° |
| 2026-05-08 02:08 | -22.22764 | -64.61255 | 24991 ft | 236 kts | 14° |
| 2026-05-08 02:09 | -22.20590 | -64.60559 | 25003 ft | 246 kts | 14° |
| 2026-05-08 02:09 | -22.18944 | -64.60032 | 25005 ft | 251 kts | 14° |
| 2026-05-08 02:09 | -22.17238 | -64.59486 | 25005 ft | 255 kts | 14° |
| 2026-05-08 02:09 | -22.15550 | -64.58945 | 25004 ft | 257 kts | 14° |
| 2026-05-08 02:10 | -22.13805 | -64.58387 | 25004 ft | 259 kts | 14° |
| 2026-05-08 02:10 | -22.12074 | -64.57833 | 25004 ft | 260 kts | 14° |
| 2026-05-08 02:10 | -22.10341 | -64.57278 | 25003 ft | 261 kts | 14° |
| 2026-05-08 02:10 | -22.08587 | -64.56717 | 25003 ft | 262 kts | 14° |
| 2026-05-08 02:11 | -22.06860 | -64.56165 | 25003 ft | 262 kts | 14° |
| 2026-05-08 02:11 | -22.05101 | -64.55602 | 25003 ft | 262 kts | 14° |
| 2026-05-08 02:11 | -22.03350 | -64.55043 | 25003 ft | 263 kts | 14° |
| 2026-05-08 02:11 | -22.01582 | -64.54478 | 25003 ft | 263 kts | 14° |
| 2026-05-08 02:12 | -21.99841 | -64.53923 | 25003 ft | 263 kts | 14° |
| 2026-05-08 02:12 | -21.98094 | -64.53365 | 25003 ft | 263 kts | 14° |
| 2026-05-08 02:12 | -21.96317 | -64.52798 | 25003 ft | 263 kts | 14° |
| 2026-05-08 02:12 | -21.94574 | -64.52242 | 25003 ft | 263 kts | 14° |
| 2026-05-08 02:13 | -21.92835 | -64.51688 | 25003 ft | 263 kts | 14° |
| 2026-05-08 02:13 | -21.91072 | -64.51126 | 25003 ft | 263 kts | 14° |
| 2026-05-08 02:13 | -21.89321 | -64.50568 | 25003 ft | 263 kts | 14° |
| 2026-05-08 02:13 | -21.87549 | -64.50003 | 25003 ft | 263 kts | 14° |
| 2026-05-08 02:14 | -21.85809 | -64.49449 | 25003 ft | 263 kts | 14° |
| 2026-05-08 02:14 | -21.84036 | -64.48885 | 25003 ft | 263 kts | 14° |
| 2026-05-08 02:14 | -21.82288 | -64.48328 | 25003 ft | 263 kts | 14° |
| 2026-05-08 02:14 | -21.80543 | -64.47773 | 25003 ft | 263 kts | 14° |
| 2026-05-08 02:15 | -21.78789 | -64.47215 | 25003 ft | 263 kts | 14° |
| 2026-05-08 02:15 | -21.77028 | -64.46655 | 25003 ft | 263 kts | 14° |
| 2026-05-08 02:15 | -21.75259 | -64.46092 | 25003 ft | 263 kts | 14° |
| 2026-05-08 02:15 | -21.73496 | -64.45532 | 25003 ft | 263 kts | 14° |
| 2026-05-08 02:16 | -21.71742 | -64.44974 | 25003 ft | 263 kts | 14° |
| 2026-05-08 02:16 | -21.70006 | -64.44423 | 25003 ft | 263 kts | 14° |
| 2026-05-08 02:16 | -21.68237 | -64.43861 | 25003 ft | 263 kts | 14° |
| 2026-05-08 02:16 | -21.66492 | -64.43306 | 25003 ft | 263 kts | 14° |
| 2026-05-08 02:17 | -21.64719 | -64.42744 | 25003 ft | 263 kts | 14° |
| 2026-05-08 02:17 | -21.62968 | -64.42188 | 25003 ft | 263 kts | 14° |
| 2026-05-08 02:17 | -21.61211 | -64.41630 | 25003 ft | 263 kts | 14° |
| 2026-05-08 02:17 | -21.59470 | -64.41078 | 25003 ft | 263 kts | 14° |
| 2026-05-08 02:18 | -21.57707 | -64.40519 | 25003 ft | 263 kts | 14° |
| 2026-05-08 02:18 | -21.55940 | -64.39958 | 25003 ft | 263 kts | 14° |
| 2026-05-08 02:18 | -21.54185 | -64.39402 | 25003 ft | 263 kts | 14° |
| 2026-05-08 02:18 | -21.52165 | -64.38762 | 25003 ft | 263 kts | 14° |
| 2026-05-08 02:19 | -21.48684 | -64.37659 | 25003 ft | 263 kts | 14° |
| 2026-05-08 02:19 | -21.45451 | -64.36635 | 25003 ft | 263 kts | 14° |
| 2026-05-08 02:19 | -21.43694 | -64.36078 | 25003 ft | 263 kts | 14° |
| 2026-05-08 02:19 | -21.41944 | -64.35525 | 25003 ft | 263 kts | 14° |
| 2026-05-08 02:20 | -21.40183 | -64.34967 | 25003 ft | 263 kts | 14° |
| 2026-05-08 02:20 | -21.38444 | -64.34417 | 25003 ft | 263 kts | 14° |
| 2026-05-08 02:20 | -21.36687 | -64.33859 | 25003 ft | 263 kts | 14° |
| 2026-05-08 02:20 | -21.34916 | -64.33295 | 25003 ft | 263 kts | 14° |
| 2026-05-08 02:21 | -21.33186 | -64.32743 | 25003 ft | 263 kts | 14° |
| 2026-05-08 02:21 | -21.31412 | -64.32176 | 25003 ft | 263 kts | 15° |
| 2026-05-08 02:21 | -21.29657 | -64.31616 | 25003 ft | 263 kts | 15° |
| 2026-05-08 02:21 | -21.27905 | -64.31056 | 25003 ft | 263 kts | 15° |
| 2026-05-08 02:22 | -21.26156 | -64.30497 | 25003 ft | 263 kts | 15° |
| 2026-05-08 02:22 | -21.24402 | -64.29937 | 25003 ft | 263 kts | 15° |
| 2026-05-08 02:22 | -21.22631 | -64.29371 | 25003 ft | 263 kts | 15° |
| 2026-05-08 02:22 | -21.20880 | -64.28812 | 25003 ft | 263 kts | 15° |
| 2026-05-08 02:23 | -21.17437 | -64.27712 | 25003 ft | 263 kts | 15° |
| 2026-05-08 02:23 | -21.13917 | -64.26588 | 25003 ft | 263 kts | 15° |
| 2026-05-08 02:23 | -21.10428 | -64.25475 | 25003 ft | 263 kts | 15° |
| 2026-05-08 02:23 | -21.06886 | -64.24345 | 25003 ft | 263 kts | 15° |
| 2026-05-08 02:24 | -21.04200 | -64.23489 | 25003 ft | 263 kts | 15° |
| 2026-05-08 02:24 | -21.02432 | -64.22925 | 25003 ft | 263 kts | 14° |
| 2026-05-08 02:24 | -21.00689 | -64.22370 | 25003 ft | 263 kts | 14° |
| 2026-05-08 02:24 | -20.98927 | -64.21809 | 25003 ft | 263 kts | 14° |
| 2026-05-08 02:25 | -20.97751 | -64.21434 | 25003 ft | 263 kts | 14° |
| 2026-05-08 02:25 | -20.95990 | -64.20874 | 25003 ft | 263 kts | 14° |
| 2026-05-08 02:25 | -20.94242 | -64.20317 | 25003 ft | 263 kts | 14° |
| 2026-05-08 02:25 | -20.92498 | -64.19762 | 25003 ft | 263 kts | 14° |
| 2026-05-08 02:26 | -20.90720 | -64.19196 | 25003 ft | 263 kts | 14° |
| 2026-05-08 02:26 | -20.88970 | -64.18640 | 25003 ft | 263 kts | 14° |
| 2026-05-08 02:26 | -20.87206 | -64.18079 | 25003 ft | 263 kts | 14° |
| 2026-05-08 02:26 | -20.85448 | -64.17520 | 25003 ft | 263 kts | 14° |
| 2026-05-08 02:27 | -20.83712 | -64.16968 | 25003 ft | 263 kts | 14° |
| 2026-05-08 02:27 | -20.81951 | -64.16408 | 25003 ft | 263 kts | 14° |
| 2026-05-08 02:27 | -20.80199 | -64.15851 | 25006 ft | 263 kts | 14° |
| 2026-05-08 02:27 | -20.78447 | -64.15295 | 25005 ft | 263 kts | 14° |
| 2026-05-08 02:28 | -20.76683 | -64.14734 | 25004 ft | 263 kts | 14° |
| 2026-05-08 02:28 | -20.74905 | -64.14170 | 25003 ft | 263 kts | 14° |
| 2026-05-08 02:28 | -20.71363 | -64.13045 | 25003 ft | 263 kts | 14° |
| 2026-05-08 02:28 | -20.67879 | -64.11939 | 25003 ft | 263 kts | 15° |
| 2026-05-08 02:29 | -20.64352 | -64.10816 | 25003 ft | 263 kts | 15° |
| 2026-05-08 02:29 | -20.60869 | -64.09705 | 25003 ft | 263 kts | 15° |
| 2026-05-08 02:29 | -20.57354 | -64.08583 | 25003 ft | 263 kts | 15° |
| 2026-05-08 02:29 | -20.53851 | -64.07464 | 25003 ft | 263 kts | 15° |
| 2026-05-08 02:30 | -20.50321 | -64.06338 | 25003 ft | 263 kts | 15° |
| 2026-05-08 02:30 | -20.46836 | -64.05227 | 25003 ft | 263 kts | 15° |
| 2026-05-08 02:30 | -20.45074 | -64.04665 | 25003 ft | 263 kts | 15° |
| 2026-05-08 02:30 | -20.43300 | -64.04099 | 25003 ft | 263 kts | 15° |
| 2026-05-08 02:31 | -20.41556 | -64.03543 | 25003 ft | 263 kts | 15° |
| 2026-05-08 02:31 | -20.39792 | -64.02981 | 25003 ft | 263 kts | 15° |
| 2026-05-08 02:31 | -20.38058 | -64.02429 | 25003 ft | 263 kts | 15° |
| 2026-05-08 02:31 | -20.36285 | -64.01864 | 25003 ft | 263 kts | 15° |
| 2026-05-08 02:32 | -20.34540 | -64.01309 | 25003 ft | 263 kts | 15° |
| 2026-05-08 02:32 | -20.32781 | -64.00749 | 25003 ft | 263 kts | 15° |
| 2026-05-08 02:32 | -20.31027 | -64.00190 | 25003 ft | 263 kts | 15° |
| 2026-05-08 02:32 | -20.29258 | -63.99627 | 25003 ft | 263 kts | 15° |
| 2026-05-08 02:33 | -20.27516 | -63.99073 | 25003 ft | 263 kts | 15° |
| 2026-05-08 02:33 | -20.25745 | -63.98510 | 25003 ft | 263 kts | 15° |
| 2026-05-08 02:33 | -20.23994 | -63.97953 | 25003 ft | 263 kts | 15° |
| 2026-05-08 02:33 | -20.22231 | -63.97393 | 25003 ft | 263 kts | 15° |
| 2026-05-08 02:34 | -20.20477 | -63.96835 | 25003 ft | 263 kts | 15° |
| 2026-05-08 02:34 | -20.18713 | -63.96275 | 25003 ft | 263 kts | 15° |
| 2026-05-08 02:34 | -20.16979 | -63.95724 | 25003 ft | 263 kts | 15° |
| 2026-05-08 02:34 | -20.15216 | -63.95164 | 25003 ft | 263 kts | 15° |
| 2026-05-08 02:35 | -20.13462 | -63.94607 | 25003 ft | 263 kts | 15° |
| 2026-05-08 02:35 | -20.11716 | -63.94053 | 25003 ft | 263 kts | 15° |
| 2026-05-08 02:35 | -20.09945 | -63.93490 | 25003 ft | 263 kts | 15° |
| 2026-05-08 02:35 | -20.08181 | -63.92930 | 25003 ft | 263 kts | 15° |
| 2026-05-08 02:36 | -20.06449 | -63.92381 | 25003 ft | 263 kts | 15° |
| 2026-05-08 02:36 | -20.04682 | -63.91820 | 25003 ft | 263 kts | 15° |
| 2026-05-08 02:36 | -20.02928 | -63.91264 | 25003 ft | 263 kts | 15° |
| 2026-05-08 02:36 | -20.00790 | -63.90586 | 25003 ft | 263 kts | 15° |
| 2026-05-08 02:37 | -19.97240 | -63.89456 | 25003 ft | 263 kts | 15° |
| 2026-05-08 02:37 | -19.93758 | -63.88346 | 25003 ft | 263 kts | 15° |
| 2026-05-08 02:37 | -19.90239 | -63.87224 | 25003 ft | 263 kts | 15° |
| 2026-05-08 02:37 | -19.86733 | -63.86105 | 25003 ft | 263 kts | 15° |
| 2026-05-08 02:38 | -19.83234 | -63.84990 | 25003 ft | 263 kts | 15° |
| 2026-05-08 02:38 | -19.79726 | -63.83871 | 25003 ft | 263 kts | 15° |
| 2026-05-08 02:38 | -19.76219 | -63.82754 | 25003 ft | 263 kts | 15° |
| 2026-05-08 02:38 | -19.72696 | -63.81632 | 25003 ft | 263 kts | 15° |
| 2026-05-08 02:39 | -19.69159 | -63.80506 | 25003 ft | 263 kts | 15° |
| 2026-05-08 02:39 | -19.65681 | -63.79399 | 25003 ft | 263 kts | 15° |
| 2026-05-08 02:39 | -19.62184 | -63.78287 | 25003 ft | 263 kts | 15° |
| 2026-05-08 02:39 | -19.59387 | -63.77397 | 25003 ft | 263 kts | 15° |
| 2026-05-08 02:40 | -19.57636 | -63.76841 | 25003 ft | 263 kts | 15° |
| 2026-05-08 02:40 | -19.55894 | -63.76287 | 25003 ft | 263 kts | 15° |
| 2026-05-08 02:40 | -19.54128 | -63.75726 | 25003 ft | 263 kts | 15° |
| 2026-05-08 02:40 | -19.52380 | -63.75171 | 25003 ft | 263 kts | 15° |
| 2026-05-08 02:41 | -19.50610 | -63.74609 | 25003 ft | 263 kts | 15° |
| 2026-05-08 02:41 | -19.48863 | -63.74054 | 25003 ft | 263 kts | 15° |
| 2026-05-08 02:41 | -19.47086 | -63.73490 | 25003 ft | 263 kts | 15° |
| 2026-05-08 02:41 | -19.45349 | -63.72938 | 25003 ft | 263 kts | 15° |
| 2026-05-08 02:42 | -19.43579 | -63.72377 | 25003 ft | 263 kts | 15° |
| 2026-05-08 02:42 | -19.41886 | -63.71840 | 25003 ft | 263 kts | 15° |
| 2026-05-08 02:42 | -19.40053 | -63.71259 | 25003 ft | 263 kts | 15° |
| 2026-05-08 02:42 | -19.38316 | -63.70708 | 25003 ft | 263 kts | 15° |
| 2026-05-08 02:43 | -19.36545 | -63.70146 | 25003 ft | 263 kts | 15° |
| 2026-05-08 02:43 | -19.34785 | -63.69589 | 25003 ft | 263 kts | 15° |
| 2026-05-08 02:43 | -19.33031 | -63.69033 | 25003 ft | 263 kts | 15° |
| 2026-05-08 02:43 | -19.31287 | -63.68480 | 25003 ft | 263 kts | 15° |
| 2026-05-08 02:44 | -19.29532 | -63.67924 | 25003 ft | 263 kts | 15° |
| 2026-05-08 02:44 | -19.27755 | -63.67362 | 25003 ft | 264 kts | 15° |
| 2026-05-08 02:44 | -19.26002 | -63.66807 | 25003 ft | 264 kts | 15° |
| 2026-05-08 02:44 | -19.24245 | -63.66251 | 25003 ft | 264 kts | 15° |
| 2026-05-08 02:45 | -19.22491 | -63.65696 | 25003 ft | 264 kts | 15° |
| 2026-05-08 02:45 | -19.20739 | -63.65141 | 25003 ft | 264 kts | 15° |
| 2026-05-08 02:45 | -19.18970 | -63.64582 | 25003 ft | 264 kts | 15° |
| 2026-05-08 02:45 | -19.17201 | -63.64023 | 25003 ft | 264 kts | 15° |
| 2026-05-08 02:46 | -19.15439 | -63.63466 | 24746 ft | 271 kts | 14° |
| 2026-05-08 02:46 | -19.13614 | -63.62889 | 24457 ft | 276 kts | 14° |
| 2026-05-08 02:46 | -19.11737 | -63.62296 | 24093 ft | 281 kts | 13° |
| 2026-05-08 02:46 | -19.09865 | -63.61704 | 23704 ft | 285 kts | 13° |
| 2026-05-08 02:47 | -19.07952 | -63.61099 | 23304 ft | 288 kts | 13° |
| 2026-05-08 02:47 | -19.06031 | -63.60492 | 22905 ft | 288 kts | 12° |
| 2026-05-08 02:47 | -19.04158 | -63.59896 | 22504 ft | 275 kts | 12° |
| 2026-05-08 02:47 | -19.02352 | -63.59320 | 22100 ft | 266 kts | 11° |
| 2026-05-08 02:48 | -19.00598 | -63.58763 | 21699 ft | 262 kts | 11° |
| 2026-05-08 02:48 | -18.98834 | -63.58208 | 21294 ft | 261 kts | 11° |
| 2026-05-08 02:48 | -18.97104 | -63.57666 | 20896 ft | 262 kts | 11° |
| 2026-05-08 02:48 | -18.95334 | -63.57113 | 20492 ft | 264 kts | 11° |
| 2026-05-08 02:49 | -18.93577 | -63.56561 | 20094 ft | 266 kts | 11° |
| 2026-05-08 02:49 | -18.91791 | -63.55980 | 19692 ft | 269 kts | 12° |
| 2026-05-08 02:49 | -18.90012 | -63.55385 | 19294 ft | 270 kts | 12° |
| 2026-05-08 02:49 | -18.88203 | -63.54771 | 18890 ft | 271 kts | 13° |
| 2026-05-08 02:50 | -18.86417 | -63.54159 | 18491 ft | 270 kts | 13° |
| 2026-05-08 02:50 | -18.84627 | -63.53543 | 18090 ft | 270 kts | 13° |
| 2026-05-08 02:50 | -18.82860 | -63.52933 | 17694 ft | 269 kts | 13° |
| 2026-05-08 02:50 | -18.81080 | -63.52318 | 17293 ft | 268 kts | 13° |
| 2026-05-08 02:51 | -18.79301 | -63.51703 | 16891 ft | 268 kts | 13° |
| 2026-05-08 02:51 | -18.77530 | -63.51092 | 16503 ft | 267 kts | 13° |
| 2026-05-08 02:51 | -18.75772 | -63.50483 | 16210 ft | 263 kts | 13° |
| 2026-05-08 02:51 | -18.74043 | -63.49884 | 15933 ft | 260 kts | 13° |
| 2026-05-08 02:52 | -18.72324 | -63.49290 | 15657 ft | 259 kts | 13° |
| 2026-05-08 02:52 | -18.70618 | -63.48700 | 15382 ft | 258 kts | 13° |
| 2026-05-08 02:52 | -18.68927 | -63.48117 | 15109 ft | 257 kts | 13° |
| 2026-05-08 02:52 | -18.67226 | -63.47530 | 14834 ft | 257 kts | 13° |
| 2026-05-08 02:53 | -18.65516 | -63.46940 | 14556 ft | 256 kts | 13° |
| 2026-05-08 02:53 | -18.63824 | -63.46357 | 14281 ft | 255 kts | 13° |
| 2026-05-08 02:53 | -18.62130 | -63.45772 | 14004 ft | 255 kts | 13° |
| 2026-05-08 02:53 | -18.60464 | -63.45198 | 13738 ft | 254 kts | 13° |
| 2026-05-08 02:54 | -18.58777 | -63.44615 | 13535 ft | 252 kts | 13° |
| 2026-05-08 02:54 | -18.57133 | -63.44048 | 13336 ft | 250 kts | 13° |
| 2026-05-08 02:54 | -18.55477 | -63.43477 | 13136 ft | 249 kts | 13° |
| 2026-05-08 02:54 | -18.53810 | -63.42902 | 12933 ft | 249 kts | 13° |
| 2026-05-08 02:55 | -18.52174 | -63.42339 | 12734 ft | 248 kts | 13° |
| 2026-05-08 02:55 | -18.48866 | -63.41201 | 12333 ft | 252 kts | 13° |
| 2026-05-08 02:55 | -18.47212 | -63.40633 | 12137 ft | 254 kts | 13° |
| 2026-05-08 02:56 | -18.45506 | -63.40047 | 11934 ft | 255 kts | 14° |
| 2026-05-08 02:56 | -18.43822 | -63.39471 | 11735 ft | 257 kts | 14° |
| 2026-05-08 02:56 | -18.42113 | -63.38884 | 11534 ft | 258 kts | 15° |
| 2026-05-08 02:56 | -18.40420 | -63.38301 | 11336 ft | 258 kts | 15° |
| 2026-05-08 02:57 | -18.38713 | -63.37712 | 11142 ft | 258 kts | 15° |
| 2026-05-08 02:57 | -18.37022 | -63.37129 | 10975 ft | 257 kts | 15° |
| 2026-05-08 02:57 | -18.35322 | -63.36542 | 10798 ft | 256 kts | 15° |
| 2026-05-08 02:57 | -18.34194 | -63.36154 | 10681 ft | 256 kts | 15° |
| 2026-05-08 02:58 | -18.32490 | -63.35567 | 10504 ft | 255 kts | 15° |
| 2026-05-08 02:58 | -18.30801 | -63.34986 | 10329 ft | 255 kts | 15° |
| 2026-05-08 02:58 | -18.29120 | -63.34407 | 10149 ft | 255 kts | 15° |
| 2026-05-08 02:58 | -18.27442 | -63.33830 | 9949 ft | 255 kts | 14° |
| 2026-05-08 02:59 | -18.25735 | -63.33243 | 9746 ft | 254 kts | 14° |
| 2026-05-08 02:59 | -18.24073 | -63.32672 | 9548 ft | 253 kts | 14° |
| 2026-05-08 02:59 | -18.22406 | -63.32099 | 9349 ft | 253 kts | 14° |
| 2026-05-08 02:59 | -18.20729 | -63.31524 | 9148 ft | 253 kts | 14° |
| 2026-05-08 03:00 | -18.19060 | -63.30951 | 8948 ft | 252 kts | 14° |
| 2026-05-08 03:00 | -18.17403 | -63.30382 | 8749 ft | 252 kts | 14° |
| 2026-05-08 03:00 | -18.15728 | -63.29807 | 8547 ft | 251 kts | 14° |
| 2026-05-08 03:00 | -18.14058 | -63.29234 | 8346 ft | 251 kts | 14° |
| 2026-05-08 03:01 | -18.12410 | -63.28669 | 8172 ft | 249 kts | 14° |
| 2026-05-08 03:01 | -18.10771 | -63.28106 | 8055 ft | 247 kts | 14° |
| 2026-05-08 03:01 | -18.09164 | -63.27553 | 8013 ft | 242 kts | 14° |
| 2026-05-08 03:01 | -18.07545 | -63.26981 | 7852 ft | 250 kts | 17° |
| 2026-05-08 03:02 | -18.05947 | -63.26194 | 7733 ft | 258 kts | 23° |
| 2026-05-08 03:02 | -18.04345 | -63.25301 | 7608 ft | 260 kts | 25° |
| 2026-05-08 03:02 | -18.01365 | -63.23572 | 7380 ft | 269 kts | 25° |
| 2026-05-08 03:02 | -17.97920 | -63.21557 | 7119 ft | 271 kts | 25° |
| 2026-05-08 03:03 | -17.96273 | -63.20593 | 6993 ft | 270 kts | 25° |
| 2026-05-08 03:03 | -17.94643 | -63.19640 | 6869 ft | 269 kts | 25° |
| 2026-05-08 03:03 | -17.93031 | -63.18694 | 6738 ft | 252 kts | 25° |
| 2026-05-08 03:03 | -17.91589 | -63.17835 | 6605 ft | 231 kts | 25° |
| 2026-05-08 03:04 | -17.90224 | -63.17010 | 6473 ft | 220 kts | 26° |
| 2026-05-08 03:04 | -17.88917 | -63.16224 | 6355 ft | 214 kts | 26° |
| 2026-05-08 03:04 | -17.87641 | -63.15465 | 6311 ft | 207 kts | 25° |
| 2026-05-08 03:04 | -17.86399 | -63.14730 | 6302 ft | 201 kts | 25° |
| 2026-05-08 03:05 | -17.85195 | -63.14018 | 6301 ft | 197 kts | 25° |
| 2026-05-08 03:05 | -17.83994 | -63.13323 | 6285 ft | 193 kts | 22° |
| 2026-05-08 03:05 | -17.82800 | -63.12726 | 6112 ft | 190 kts | 21° |
| 2026-05-08 03:05 | -17.81507 | -63.12169 | 5767 ft | 225 kts | 17° |
| 2026-05-08 03:06 | -17.79937 | -63.11712 | 5798 ft | 244 kts | 13° |
| 2026-05-08 03:06 | -17.78332 | -63.11296 | 5362 ft | 232 kts | 12° |
| 2026-05-08 03:06 | -17.76773 | -63.10974 | 4751 ft | 228 kts | 8° |
| 2026-05-08 03:06 | -17.75265 | -63.10799 | 4585 ft | 208 kts | 5° |
| 2026-05-08 03:07 | -17.73887 | -63.10687 | 4445 ft | 193 kts | 5° |
| 2026-05-08 03:07 | -17.72551 | -63.10578 | 3977 ft | 197 kts | 3° |
| 2026-05-08 03:07 | -17.71186 | -63.10586 | 3355 ft | 191 kts | 358° |
| 2026-05-08 03:07 | -17.69884 | -63.10784 | 2745 ft | 187 kts | 350° |
| 2026-05-08 03:08 | -17.68633 | -63.11116 | 2125 ft | 186 kts | 340° |
| 2026-05-08 03:08 | -17.67485 | -63.11633 | 1777 ft | 172 kts | 335° |
| 2026-05-08 03:08 | -17.66460 | -63.12216 | 1408 ft | 166 kts | 328° |
| 2026-05-08 03:08 | -17.65518 | -63.12845 | 1229 ft | 152 kts | 327° |
| 2026-05-08 03:09 | -17.64785 | -63.13335 | 1229 ft | 101 kts | 328° |
| 2026-05-08 03:09 | -17.64309 | -63.13648 | 1229 ft | 58 kts | 328° |
| 2026-05-08 03:09 | -17.64031 | -63.13832 | 1229 ft | 33 kts | 326° |
| 2026-05-08 03:09 | -17.63902 | -63.13925 | 1229 ft | 22 kts | 322° |
| 2026-05-08 03:10 | -17.63943 | -63.14049 | 1229 ft | 21 kts | 236° |
| 2026-05-08 03:10 | -17.64017 | -63.14172 | 1229 ft | 17 kts | 239° |
| 2026-05-08 03:10 | -17.64068 | -63.14256 | 1229 ft | 5 kts | 239° |
| 2026-05-08 03:10 | -17.64120 | -63.14346 | 1228 ft | 19 kts | 238° |
| 2026-05-08 03:11 | -17.64125 | -63.14387 | 1229 ft | 7 kts | 346° |
| 2026-05-08 03:11 | -17.64114 | -63.14393 | 1229 ft | 0 kts | 329° |